createdAt,value
2017-12-08T00:00:31.499Z,5.37
2017-12-08T00:03:00.356Z,5.70
2017-12-08T00:05:29.512Z,5.90
2017-12-08T00:07:58.378Z,5.20
2017-12-08T00:10:27.212Z,6.53
2017-12-08T00:12:56.055Z,5.40
2017-12-08T00:15:25.742Z,6.07
2017-12-08T00:17:54.582Z,5.80
2017-12-08T00:20:23.412Z,4.83
2017-12-08T00:22:52.277Z,5.07
2017-12-08T00:25:21.103Z,5.47
2017-12-08T00:27:50.839Z,5.10
2017-12-08T00:30:19.729Z,5.00
2017-12-08T00:32:48.580Z,4.73
2017-12-08T00:35:17.464Z,4.90
2017-12-08T00:37:46.745Z,4.63
2017-12-08T00:40:15.613Z,4.37
2017-12-08T00:42:44.461Z,4.30
2017-12-08T00:45:13.320Z,4.53
2017-12-08T00:47:42.161Z,4.60
2017-12-08T00:50:11.019Z,4.20
2017-12-08T00:52:39.910Z,4.03
2017-12-08T00:55:08.744Z,5.50
2017-12-08T00:57:37.569Z,4.00
2017-12-08T01:00:07.190Z,4.20
2017-12-08T01:02:36.039Z,4.03
2017-12-08T01:05:04.952Z,3.83
2017-12-08T01:07:33.811Z,3.73
2017-12-08T01:10:02.697Z,3.50
2017-12-08T01:12:31.539Z,3.47
2017-12-08T01:15:00.407Z,3.07
2017-12-08T01:17:29.260Z,3.80
2017-12-08T01:19:58.101Z,3.70
2017-12-08T01:22:26.949Z,3.77
2017-12-08T01:24:55.779Z,3.87
2017-12-08T01:27:24.619Z,4.10
2017-12-08T01:32:26.641Z,3.53
2017-12-08T01:34:55.500Z,3.03
2017-12-08T01:37:24.355Z,2.80
2017-12-08T01:39:53.174Z,3.00
2017-12-08T01:42:22.081Z,3.50
2017-12-08T01:44:50.951Z,2.67
2017-12-08T01:47:20.042Z,2.60
2017-12-08T01:49:48.924Z,2.70
2017-12-08T01:52:17.751Z,2.77
2017-12-08T01:54:46.590Z,2.73
2017-12-08T01:57:15.687Z,2.90
2017-12-08T01:59:44.546Z,3.43
2017-12-08T02:02:13.421Z,3.23
2017-12-08T02:04:42.287Z,3.93
2017-12-08T02:07:11.131Z,3.50
2017-12-08T02:09:39.964Z,4.70
2017-12-08T02:12:08.818Z,3.70
2017-12-08T02:14:37.657Z,3.20
2017-12-08T02:17:06.491Z,3.00
2017-12-08T02:19:35.368Z,3.07
2017-12-08T02:22:04.205Z,2.27
2017-12-08T02:24:33.040Z,2.37
2017-12-08T02:27:01.905Z,2.00
2017-12-08T02:29:30.755Z,2.47
2017-12-08T02:31:59.592Z,2.23
2017-12-08T02:34:28.450Z,1.80
2017-12-08T02:36:57.287Z,2.13
2017-12-08T02:41:59.294Z,2.03
2017-12-08T02:44:28.124Z,2.77
2017-12-08T02:46:56.962Z,2.97
2017-12-08T02:49:25.831Z,2.70
2017-12-08T02:51:54.696Z,2.47
2017-12-08T02:54:23.539Z,2.30
2017-12-08T02:56:52.416Z,2.37
2017-12-08T02:59:21.249Z,2.77
2017-12-08T03:01:50.095Z,2.70
2017-12-08T03:04:18.987Z,2.33
2017-12-08T03:06:47.858Z,2.03
2017-12-08T03:09:16.750Z,2.50
2017-12-08T03:11:45.612Z,2.63
2017-12-08T03:14:14.435Z,2.97
2017-12-08T03:16:43.289Z,2.57
2017-12-08T03:19:12.166Z,2.53
2017-12-08T03:21:41.000Z,2.80
2017-12-08T03:24:09.853Z,2.30
2017-12-08T03:26:39.562Z,3.10
2017-12-08T03:29:08.422Z,2.70
2017-12-08T03:31:37.262Z,2.60
2017-12-08T03:34:06.132Z,2.53
2017-12-08T03:36:35.548Z,2.60
2017-12-08T03:39:05.694Z,2.50
2017-12-08T03:41:34.596Z,2.47
2017-12-08T03:44:03.451Z,2.50
2017-12-08T03:46:32.284Z,3.00
2017-12-08T03:49:01.144Z,2.83
2017-12-08T03:51:29.978Z,2.67
2017-12-08T03:53:58.812Z,2.80
2017-12-08T03:56:27.674Z,2.63
2017-12-08T03:58:56.502Z,2.97
2017-12-08T04:01:25.334Z,2.60
2017-12-08T04:03:54.178Z,3.30
2017-12-08T04:06:23.010Z,2.43
2017-12-08T04:08:51.859Z,2.40
2017-12-08T04:11:20.746Z,2.60
2017-12-08T04:13:49.590Z,3.10
2017-12-08T04:16:18.436Z,3.90
2017-12-08T04:18:47.292Z,3.90
2017-12-08T04:21:16.130Z,3.00
2017-12-08T04:23:45.517Z,3.30
2017-12-08T04:26:14.406Z,3.17
2017-12-08T04:28:43.250Z,3.20
2017-12-08T04:31:12.087Z,2.57
2017-12-08T04:33:40.986Z,2.70
2017-12-08T04:36:09.816Z,3.20
2017-12-08T04:38:38.648Z,2.93
2017-12-08T04:41:07.510Z,2.67
2017-12-08T04:43:37.302Z,3.20
2017-12-08T04:46:06.940Z,3.40
2017-12-08T04:48:35.793Z,3.33
2017-12-08T04:51:04.665Z,2.70
2017-12-08T04:53:33.532Z,3.03
2017-12-08T04:56:02.366Z,3.50
2017-12-08T04:58:31.194Z,3.67
2017-12-08T05:01:00.069Z,2.80
2017-12-08T05:03:28.940Z,3.20
2017-12-08T05:05:57.772Z,3.33
2017-12-08T05:08:26.622Z,3.97
2017-12-08T05:10:55.455Z,4.80
2017-12-08T05:13:24.283Z,3.80
2017-12-08T05:15:53.172Z,3.70
2017-12-08T05:18:22.010Z,3.30
2017-12-08T05:20:50.871Z,4.43
2017-12-08T05:23:19.838Z,4.00
2017-12-08T05:25:48.694Z,3.70
2017-12-08T05:28:17.540Z,4.03
2017-12-08T05:30:46.420Z,4.77
2017-12-08T05:33:15.724Z,4.97
2017-12-08T05:35:44.563Z,3.00
2017-12-08T05:38:13.452Z,3.50
2017-12-08T05:40:42.306Z,2.83
2017-12-08T05:43:11.140Z,3.40
2017-12-08T05:45:40.004Z,3.57
2017-12-08T05:48:08.868Z,3.57
2017-12-08T05:50:37.718Z,3.07
2017-12-08T05:53:06.572Z,3.10
2017-12-08T05:55:35.422Z,2.60
2017-12-08T05:58:04.268Z,2.67
2017-12-08T06:00:33.166Z,2.30
2017-12-08T06:03:02.026Z,1.90
2017-12-08T06:05:31.145Z,2.10
2017-12-08T06:08:00.004Z,2.13
2017-12-08T06:10:28.845Z,2.67
2017-12-08T06:12:57.670Z,1.87
2017-12-08T06:15:26.528Z,2.27
2017-12-08T06:17:55.361Z,2.20
2017-12-08T06:20:24.200Z,2.10
2017-12-08T06:22:53.080Z,1.87
2017-12-08T06:25:21.912Z,2.77
2017-12-08T06:27:51.671Z,2.63
2017-12-08T06:30:21.424Z,2.00
2017-12-08T06:32:50.266Z,2.37
2017-12-08T06:35:19.101Z,2.10
2017-12-08T06:37:48.022Z,1.80
2017-12-08T06:40:17.628Z,2.30
2017-12-08T06:42:46.480Z,5.07
2017-12-08T06:45:15.355Z,5.60
2017-12-08T06:47:44.202Z,4.73
2017-12-08T06:50:13.065Z,6.00
2017-12-08T06:52:42.325Z,3.73
2017-12-08T06:55:11.740Z,2.60
2017-12-08T06:57:42.038Z,2.80
2017-12-08T07:00:10.904Z,2.50
2017-12-08T07:02:39.776Z,3.00
2017-12-08T07:05:09.129Z,3.03
2017-12-08T07:07:37.996Z,3.80
2017-12-08T07:10:06.852Z,3.33
2017-12-08T07:12:35.712Z,3.07
2017-12-08T07:15:04.559Z,3.10
2017-12-08T07:17:34.169Z,3.37
2017-12-08T07:20:03.104Z,3.03
2017-12-08T07:22:31.960Z,4.77
2017-12-08T07:25:00.796Z,4.27
2017-12-08T07:27:29.664Z,3.97
2017-12-08T07:29:58.505Z,2.80
2017-12-08T07:32:27.337Z,3.10
2017-12-08T07:34:56.194Z,2.93
2017-12-08T07:37:25.028Z,3.00
2017-12-08T07:39:53.872Z,2.93
2017-12-08T07:42:22.736Z,3.03
2017-12-08T07:44:51.592Z,2.80
2017-12-08T07:47:20.458Z,3.63
2017-12-08T07:49:49.318Z,3.67
2017-12-08T07:52:18.158Z,3.17
2017-12-08T07:54:48.184Z,2.77
2017-12-08T07:57:17.652Z,2.43
2017-12-08T07:59:46.476Z,2.73
2017-12-08T08:02:15.349Z,2.80
2017-12-08T08:04:44.191Z,2.33
2017-12-08T08:07:13.060Z,2.60
2017-12-08T08:09:41.945Z,3.30
2017-12-08T08:12:11.724Z,2.90
2017-12-08T08:14:40.816Z,4.03
2017-12-08T08:17:09.652Z,3.30
2017-12-08T08:19:38.545Z,3.70
2017-12-08T08:22:07.405Z,4.20
2017-12-08T08:24:37.052Z,4.50
2017-12-08T08:27:05.953Z,4.17
2017-12-08T08:29:34.807Z,3.73
2017-12-08T08:32:03.709Z,4.80
2017-12-08T08:34:32.563Z,3.90
2017-12-08T08:37:01.423Z,4.13
2017-12-08T08:39:30.256Z,4.67
2017-12-08T08:41:59.124Z,4.20
2017-12-08T08:44:27.955Z,4.00
2017-12-08T08:46:56.808Z,5.70
2017-12-08T08:49:25.660Z,5.37
2017-12-08T08:51:54.490Z,4.57
2017-12-08T08:54:23.322Z,5.53
2017-12-08T08:56:52.185Z,5.60
2017-12-08T08:59:21.012Z,4.93
2017-12-08T09:01:49.844Z,5.10
2017-12-08T09:04:18.708Z,5.70
2017-12-08T09:06:47.540Z,5.53
2017-12-08T09:09:16.380Z,5.43
2017-12-08T09:11:45.234Z,5.47
2017-12-08T09:14:14.283Z,5.07
2017-12-08T09:16:43.238Z,5.40
2017-12-08T09:19:12.148Z,5.80
2017-12-08T09:21:40.976Z,5.63
2017-12-08T09:24:09.812Z,6.47
2017-12-08T09:26:38.680Z,5.77
2017-12-08T09:29:07.526Z,7.13
2017-12-08T09:31:36.373Z,6.97
2017-12-08T09:34:05.833Z,7.13
2017-12-08T09:36:35.488Z,7.10
2017-12-08T09:39:04.343Z,6.87
2017-12-08T09:41:33.204Z,7.20
2017-12-08T09:44:02.107Z,7.43
2017-12-08T09:46:30.951Z,7.00
2017-12-08T09:48:59.828Z,7.27
2017-12-08T09:51:28.660Z,7.27
2017-12-08T09:53:57.551Z,8.00
2017-12-08T09:56:26.868Z,7.50
2017-12-08T09:58:55.713Z,7.60
2017-12-08T10:01:24.568Z,6.70
2017-12-08T10:03:53.460Z,7.70
2017-12-08T10:06:22.300Z,7.40
2017-12-08T10:08:51.129Z,7.17
2017-12-08T10:11:19.980Z,6.93
2017-12-08T10:13:48.846Z,7.10
2017-12-08T10:16:17.685Z,6.90
2017-12-08T10:18:46.578Z,6.67
2017-12-08T10:21:15.412Z,5.53
2017-12-08T10:23:44.252Z,6.33
2017-12-08T10:26:14.040Z,6.17
2017-12-08T10:28:42.876Z,6.33
2017-12-08T10:31:12.580Z,7.83
2017-12-08T10:33:41.458Z,8.50
2017-12-08T10:36:10.304Z,9.00
2017-12-08T10:38:39.187Z,8.10
2017-12-08T10:41:08.604Z,7.83
2017-12-08T10:43:37.458Z,8.30
2017-12-08T10:46:06.298Z,8.40
2017-12-08T10:48:35.207Z,8.23
2017-12-08T10:51:04.058Z,8.90
2017-12-08T10:53:32.990Z,7.83
2017-12-08T10:56:01.890Z,4.57
2017-12-08T10:58:30.728Z,2.40
2017-12-08T11:00:59.599Z,1.70
2017-12-08T11:03:28.444Z,2.20
2017-12-08T11:05:57.280Z,3.43
2017-12-08T11:08:26.144Z,2.63
2017-12-08T11:10:55.004Z,2.00
2017-12-08T11:13:23.842Z,1.87
2017-12-08T11:15:52.670Z,2.60
2017-12-08T11:18:22.248Z,1.80
2017-12-08T11:20:52.098Z,1.57
2017-12-08T11:23:20.953Z,1.90
2017-12-08T11:25:49.790Z,2.40
2017-12-08T11:28:18.850Z,2.20
2017-12-08T11:30:48.562Z,2.27
2017-12-08T11:33:17.400Z,3.03
2017-12-08T11:35:46.272Z,2.90
2017-12-08T11:38:15.128Z,2.30
2017-12-08T11:40:44.035Z,2.50
2017-12-08T11:43:12.900Z,3.60
2017-12-08T11:45:41.747Z,3.57
2017-12-08T11:48:10.584Z,3.63
2017-12-08T11:50:39.425Z,6.30
2017-12-08T11:53:08.312Z,5.53
2017-12-08T11:55:37.246Z,5.73
2017-12-08T11:58:06.074Z,5.47
2017-12-08T12:00:35.068Z,5.13
2017-12-08T12:03:03.918Z,4.80
2017-12-08T12:05:32.846Z,4.20
2017-12-08T12:08:01.692Z,4.70
2017-12-08T12:10:30.544Z,3.80
2017-12-08T12:12:59.378Z,4.30
2017-12-08T12:15:28.286Z,4.33
2017-12-08T12:17:57.408Z,4.33
2017-12-08T12:20:26.294Z,4.67
2017-12-08T12:22:55.210Z,4.40
2017-12-08T12:25:24.027Z,4.70
2017-12-08T12:27:53.404Z,4.20
2017-12-08T12:30:22.258Z,3.40
2017-12-08T12:32:51.096Z,3.50
2017-12-08T12:35:19.924Z,3.23
2017-12-08T12:37:48.788Z,2.83
2017-12-08T12:40:18.531Z,2.80
2017-12-08T12:42:47.368Z,2.77
2017-12-08T12:45:16.222Z,2.57
2017-12-08T12:47:45.051Z,2.33
2017-12-08T12:50:13.910Z,2.70
2017-12-08T12:52:42.770Z,2.90
2017-12-08T12:55:11.952Z,2.80
2017-12-08T12:57:40.786Z,2.90
2017-12-08T13:00:10.408Z,2.73
2017-12-08T13:02:39.265Z,2.60
2017-12-08T13:05:08.112Z,2.80
2017-12-08T13:07:37.012Z,2.60
2017-12-08T13:10:06.020Z,2.10
2017-12-08T13:12:34.989Z,3.00
2017-12-08T13:15:03.909Z,2.30
2017-12-08T13:17:32.772Z,2.77
2017-12-08T13:20:01.612Z,2.70
2017-12-08T13:22:30.502Z,2.37
2017-12-08T13:24:59.404Z,2.13
2017-12-08T13:27:28.261Z,2.27
2017-12-08T13:29:57.225Z,2.60
2017-12-08T13:32:26.092Z,2.73
2017-12-08T13:34:55.280Z,2.20
2017-12-08T13:37:24.200Z,2.13
2017-12-08T13:39:53.069Z,2.10
2017-12-08T13:42:21.909Z,2.47
2017-12-08T13:44:51.025Z,2.43
2017-12-08T13:47:22.362Z,2.20
2017-12-08T13:49:51.778Z,2.10
2017-12-08T13:52:20.652Z,2.33
2017-12-08T13:54:56.075Z,2.30
2017-12-08T13:57:24.906Z,2.57
2017-12-08T13:59:53.734Z,2.50
2017-12-08T14:02:22.577Z,2.70
2017-12-08T14:04:52.448Z,2.47
2017-12-08T14:07:22.478Z,2.50
2017-12-08T14:09:54.357Z,2.33
2017-12-08T14:12:23.455Z,2.43
2017-12-08T14:14:52.924Z,2.50
2017-12-08T14:17:21.778Z,2.93
2017-12-08T14:19:50.647Z,3.33
2017-12-08T14:22:19.486Z,3.53
2017-12-08T14:24:48.366Z,4.07
2017-12-08T14:27:17.244Z,3.90
2017-12-08T14:29:46.141Z,3.60
2017-12-08T14:32:14.953Z,4.50
2017-12-08T14:34:43.803Z,3.77
2017-12-08T14:37:12.648Z,3.80
2017-12-08T14:39:41.494Z,3.20
2017-12-08T14:42:10.403Z,3.70
2017-12-08T14:44:39.237Z,3.87
2017-12-08T14:47:08.069Z,3.57
2017-12-08T14:49:36.940Z,3.60
2017-12-08T14:52:05.782Z,5.03
2017-12-08T14:54:35.355Z,4.67
2017-12-08T14:57:04.738Z,5.17
2017-12-08T14:59:34.273Z,4.83
2017-12-08T15:02:03.882Z,4.27
2017-12-08T15:04:33.037Z,4.10
2017-12-08T15:07:01.916Z,4.13
2017-12-08T15:09:30.783Z,4.07
2017-12-08T15:11:59.617Z,3.63
2017-12-08T15:14:28.452Z,3.50
2017-12-08T15:16:57.326Z,3.63
2017-12-08T15:19:26.158Z,3.13
2017-12-08T15:21:55.047Z,3.30
2017-12-08T15:24:24.580Z,3.40
2017-12-08T15:26:53.426Z,3.10
2017-12-08T15:29:22.281Z,3.83
2017-12-08T15:31:51.995Z,3.00
2017-12-08T15:34:20.839Z,3.60
2017-12-08T15:36:50.501Z,3.20
2017-12-08T15:39:19.989Z,3.40
2017-12-08T15:41:49.511Z,3.13
2017-12-08T15:44:18.366Z,3.33
2017-12-08T15:46:47.285Z,2.93
2017-12-08T15:49:16.133Z,3.50
2017-12-08T15:51:45.008Z,2.87
2017-12-08T15:54:14.915Z,2.60
2017-12-08T15:56:43.799Z,2.50
2017-12-08T15:59:14.141Z,2.40
2017-12-08T16:01:42.987Z,2.50
2017-12-08T16:04:11.821Z,2.30
2017-12-08T16:06:40.687Z,2.60
2017-12-08T16:09:09.655Z,2.40
2017-12-08T16:11:38.514Z,2.20
2017-12-08T16:14:09.001Z,2.20
2017-12-08T16:16:37.933Z,2.17
2017-12-08T16:19:07.703Z,3.07
2017-12-08T16:21:36.617Z,2.80
2017-12-08T16:24:05.475Z,2.60
2017-12-08T16:26:34.319Z,2.93
2017-12-08T16:29:03.239Z,2.47
2017-12-08T16:31:32.731Z,2.67
2017-12-08T16:34:01.581Z,2.70
2017-12-08T16:36:30.471Z,3.00
2017-12-08T16:38:59.369Z,3.20
2017-12-08T16:41:28.691Z,3.30
2017-12-08T16:43:57.581Z,3.30
2017-12-08T16:46:26.417Z,3.50
2017-12-08T16:48:55.281Z,3.20
2017-12-08T16:51:24.151Z,2.70
2017-12-08T16:53:53.003Z,5.17
2017-12-08T16:56:21.891Z,3.20
2017-12-08T16:58:50.751Z,2.80
2017-12-08T17:01:19.637Z,3.50
2017-12-08T17:03:48.535Z,3.03
2017-12-08T17:06:18.526Z,3.27
2017-12-08T17:08:47.937Z,6.77
2017-12-08T17:11:16.900Z,8.23
2017-12-08T17:13:45.758Z,5.40
2017-12-08T17:16:14.616Z,9.07
2017-12-08T17:18:43.451Z,4.97
2017-12-08T17:21:13.166Z,3.50
2017-12-08T17:23:41.990Z,3.87
2017-12-08T17:26:10.834Z,3.00
2017-12-08T17:28:39.703Z,3.00
2017-12-08T17:31:08.535Z,3.83
2017-12-08T17:33:37.403Z,3.03
2017-12-08T17:36:06.333Z,3.07
2017-12-08T17:38:35.161Z,2.87
2017-12-08T17:41:04.017Z,2.70
2017-12-08T17:43:32.881Z,5.03
2017-12-08T17:46:01.721Z,5.50
2017-12-08T17:48:30.559Z,4.00
2017-12-08T17:50:59.415Z,2.97
2017-12-08T17:53:28.281Z,2.80
2017-12-08T17:55:59.217Z,2.77
2017-12-08T17:58:28.185Z,2.93
2017-12-08T18:00:57.016Z,3.10
2017-12-08T18:03:25.858Z,2.70
2017-12-08T18:05:54.781Z,2.90
2017-12-08T18:08:23.639Z,3.17
2017-12-08T18:10:52.526Z,3.10
2017-12-08T18:13:21.408Z,5.33
2017-12-08T18:15:50.344Z,4.63
2017-12-08T18:18:19.189Z,3.10
2017-12-08T18:20:48.039Z,2.67
2017-12-08T18:23:16.872Z,2.60
2017-12-08T18:25:45.705Z,2.73
2017-12-08T18:28:14.591Z,2.90
2017-12-08T18:30:43.459Z,2.90
2017-12-08T18:33:12.324Z,3.07
2017-12-08T18:35:41.195Z,2.83
2017-12-08T18:38:10.044Z,3.03
2017-12-08T18:40:38.879Z,2.70
2017-12-08T18:43:07.752Z,2.57
2017-12-08T18:45:36.570Z,2.70
2017-12-08T18:48:05.415Z,2.77
2017-12-08T18:50:34.259Z,3.30
2017-12-08T18:53:03.122Z,3.70
2017-12-08T18:55:31.987Z,3.40
2017-12-08T18:58:00.866Z,3.00
2017-12-08T19:00:29.719Z,3.00
2017-12-08T19:02:58.558Z,3.03
2017-12-08T19:05:27.426Z,2.90
2017-12-08T19:07:56.270Z,2.83
2017-12-08T19:10:25.119Z,2.83
2017-12-08T19:12:53.981Z,3.37
2017-12-08T19:15:22.815Z,4.30
2017-12-08T19:17:51.659Z,3.00
2017-12-08T19:20:21.306Z,3.40
2017-12-08T19:22:50.167Z,3.43
2017-12-08T19:25:19.044Z,2.67
2017-12-08T19:27:47.909Z,3.40
2017-12-08T19:30:16.748Z,2.70
2017-12-08T19:32:45.583Z,2.80
2017-12-08T19:35:14.446Z,2.80
2017-12-08T19:37:43.311Z,2.43
2017-12-08T19:40:13.062Z,2.70
2017-12-08T19:42:41.944Z,2.80
2017-12-08T19:45:10.785Z,2.60
2017-12-08T19:47:39.631Z,2.67
2017-12-08T19:50:08.490Z,7.17
2017-12-08T19:52:37.385Z,2.90
2017-12-08T19:55:06.264Z,3.03
2017-12-08T19:57:35.184Z,2.70
2017-12-08T20:00:04.031Z,2.93
2017-12-08T20:02:32.868Z,2.70
2017-12-08T20:05:02.605Z,2.60
2017-12-08T20:07:32.041Z,2.90
2017-12-08T20:10:00.895Z,3.07
2017-12-08T20:12:29.744Z,3.10
2017-12-08T20:14:58.593Z,2.80
2017-12-08T20:17:27.487Z,2.73
2017-12-08T20:19:56.373Z,2.70
2017-12-08T20:22:25.219Z,3.07
2017-12-08T20:24:54.155Z,2.97
2017-12-08T20:27:23.036Z,3.40
2017-12-08T20:29:51.880Z,3.33
2017-12-08T20:32:20.745Z,3.00
2017-12-08T20:34:49.629Z,3.67
2017-12-08T20:37:19.538Z,3.87
2017-12-08T20:39:48.411Z,3.00
2017-12-08T20:42:17.337Z,3.20
2017-12-08T20:44:46.459Z,3.03
2017-12-08T20:47:15.405Z,2.33
2017-12-08T20:49:45.092Z,2.90
2017-12-08T20:52:13.927Z,3.07
2017-12-08T20:54:43.115Z,2.73
2017-12-08T20:57:11.972Z,2.50
2017-12-08T20:59:40.795Z,2.90
2017-12-08T21:02:09.735Z,2.70
2017-12-08T21:04:38.665Z,2.97
2017-12-08T21:07:07.701Z,3.43
2017-12-08T21:09:36.640Z,3.00
2017-12-08T21:12:05.584Z,2.80
2017-12-08T21:14:35.419Z,2.40
2017-12-08T21:17:05.202Z,2.90
2017-12-08T21:19:34.701Z,2.80
2017-12-08T21:22:03.544Z,2.87
2017-12-08T21:24:32.445Z,3.43
2017-12-08T21:27:01.311Z,2.60
2017-12-08T21:29:30.149Z,2.40
2017-12-08T21:31:59.810Z,2.50
2017-12-08T21:34:28.661Z,2.60
2017-12-08T21:36:57.512Z,3.00
2017-12-08T21:39:27.025Z,2.50
2017-12-08T21:41:55.855Z,2.97
2017-12-08T21:44:25.331Z,2.80
2017-12-08T21:46:54.197Z,2.60
2017-12-08T21:49:23.034Z,2.67
2017-12-08T21:51:51.866Z,2.60
2017-12-08T21:54:20.729Z,2.40
2017-12-08T21:56:49.564Z,2.27
2017-12-08T21:59:18.397Z,2.53
2017-12-08T22:01:47.269Z,2.30
2017-12-08T22:04:16.110Z,2.13
2017-12-08T22:06:44.987Z,4.23
2017-12-08T22:09:13.843Z,2.80
2017-12-08T22:11:42.687Z,2.70
2017-12-08T22:14:11.527Z,2.30
2017-12-08T22:16:40.423Z,2.63
2017-12-08T22:19:09.265Z,2.70
2017-12-08T22:21:38.129Z,3.17
2017-12-08T22:24:07.025Z,3.00
2017-12-08T22:26:35.997Z,2.90
2017-12-08T22:29:04.864Z,2.77
2017-12-08T22:31:33.751Z,2.50
2017-12-08T22:34:03.489Z,2.93
2017-12-08T22:36:32.406Z,2.67
2017-12-08T22:39:01.269Z,2.60
2017-12-08T22:41:30.120Z,2.90
2017-12-08T22:43:59.011Z,2.90
2017-12-08T22:46:27.862Z,2.70
2017-12-08T22:48:56.700Z,2.77
2017-12-08T22:51:25.549Z,3.20
2017-12-08T22:53:54.407Z,3.43
2017-12-08T22:56:23.263Z,2.80
2017-12-08T22:58:52.117Z,3.00
2017-12-08T23:01:21.027Z,3.33
2017-12-08T23:03:49.873Z,3.30
2017-12-08T23:06:18.706Z,2.83
2017-12-08T23:08:47.561Z,3.30
2017-12-08T23:11:16.401Z,3.20
2017-12-08T23:13:45.241Z,2.97
2017-12-08T23:16:14.110Z,3.10
2017-12-08T23:18:42.999Z,5.27
2017-12-08T23:21:11.841Z,5.77
2017-12-08T23:23:41.331Z,4.40
2017-12-08T23:26:10.169Z,4.60
2017-12-08T23:28:39.017Z,3.57
2017-12-08T23:31:08.544Z,3.53
2017-12-08T23:33:37.454Z,3.37
2017-12-08T23:36:06.305Z,3.57
2017-12-08T23:38:35.163Z,3.20
2017-12-08T23:41:04.079Z,3.57
2017-12-08T23:43:32.923Z,3.20
2017-12-08T23:46:01.779Z,3.40
2017-12-08T23:48:31.199Z,3.87
2017-12-08T23:51:00.071Z,3.60
2017-12-08T23:53:28.927Z,2.73
2017-12-08T23:55:57.779Z,2.93
2017-12-08T23:58:26.611Z,3.33
